Time,TemperatureF,DewpointF,PressureIn,WindDirection,WindDirectionDegrees,WindSpeedMPH,WindSpeedGustMPH,Humidity,HourlyPrecipIn,Conditions,Clouds,dailyrainin,SoftwareType,DateUTC
2013-01-15 00:02:00,15.0,-1.0,30.37,NNE,31,0.0,0.0,49,0.00,,,0.00,,2013-01-15 06:02:00,
2013-01-15 00:12:00,15.0,-1.0,30.37,NNE,31,0.0,0.0,49,0.00,,,0.00,,2013-01-15 06:12:00,
2013-01-15 00:22:00,15.0,-1.0,30.37,NNE,31,0.0,0.0,49,0.00,,,0.00,,2013-01-15 06:22:00,
2013-01-15 01:53:00,15.0,1.0,30.37,NNE,33,0.0,0.0,54,0.00,,,0.00,,2013-01-15 07:53:00,
2013-01-15 02:02:00,15.0,1.0,30.37,NNE,33,0.0,0.0,54,0.00,,,0.00,,2013-01-15 08:02:00,
2013-01-15 02:12:00,15.0,1.0,30.37,NNE,33,0.0,0.0,54,0.00,,,0.00,,2013-01-15 08:12:00,
2013-01-15 02:22:00,15.0,1.0,30.37,NNE,33,0.0,0.0,54,0.00,,,0.00,,2013-01-15 08:22:00,
2013-01-15 03:52:00,16.0,3.0,30.34,ENE,72,0.0,0.0,55,0.00,,,0.00,,2013-01-15 09:52:00,
2013-01-15 04:02:00,16.0,3.0,30.34,ENE,72,0.0,0.0,55,0.00,,,0.00,,2013-01-15 10:02:00,
2013-01-15 04:12:00,16.0,3.0,30.34,ENE,72,0.0,0.0,55,0.00,,,0.00,,2013-01-15 10:12:00,
2013-01-15 04:22:00,16.0,3.0,30.34,ENE,72,0.0,0.0,55,0.00,,,0.00,,2013-01-15 10:22:00,
2013-01-15 05:53:00,15.0,2.0,30.34,East,88,0.0,0.0,56,0.00,,,0.00,,2013-01-15 11:53:00,
2013-01-15 06:03:00,15.0,2.0,30.34,East,88,0.0,0.0,56,0.00,,,0.00,,2013-01-15 12:03:00,
2013-01-15 06:12:00,15.0,2.0,30.34,East,88,0.0,0.0,56,0.00,,,0.00,,2013-01-15 12:12:00,
2013-01-15 06:22:00,15.0,2.0,30.34,East,88,0.0,0.0,56,0.00,,,0.00,,2013-01-15 12:22:00,
2013-01-15 07:53:00,16.0,4.0,30.31,South,185,0.0,3.0,58,0.00,,,0.00,,2013-01-15 13:53:00,
2013-01-15 08:03:00,16.0,4.0,30.31,South,185,0.0,3.0,58,0.00,,,0.00,,2013-01-15 14:03:00,
2013-01-15 08:12:00,16.0,4.0,30.31,South,185,0.0,3.0,58,0.00,,,0.00,,2013-01-15 14:12:00,
2013-01-15 08:23:00,16.0,4.0,30.31,South,185,0.0,3.0,58,0.00,,,0.00,,2013-01-15 14:23:00,
2013-01-15 09:53:00,22.0,7.0,30.31,WSW,242,4.0,7.0,52,0.00,,,0.00,,2013-01-15 15:53:00,
2013-01-15 10:03:00,22.0,7.0,30.31,WSW,242,4.0,7.0,52,0.00,,,0.00,,2013-01-15 16:03:00,
2013-01-15 10:12:00,22.0,7.0,30.31,WSW,242,4.0,7.0,52,0.00,,,0.00,,2013-01-15 16:12:00,
2013-01-15 10:22:00,22.0,7.0,30.31,WSW,242,4.0,7.0,52,0.00,,,0.00,,2013-01-15 16:22:00,
2013-01-15 11:53:00,32.0,20.0,30.28,WSW,243,5.0,10.0,61,0.00,,,0.00,,2013-01-15 17:53:00,
2013-01-15 12:03:00,32.0,20.0,30.28,WSW,243,5.0,10.0,61,0.00,,,0.00,,2013-01-15 18:03:00,
2013-01-15 12:13:00,32.0,20.0,30.28,WSW,243,5.0,10.0,61,0.00,,,0.00,,2013-01-15 18:13:00,
2013-01-15 12:23:00,32.0,20.0,30.28,WSW,243,5.0,10.0,61,0.00,,,0.00,,2013-01-15 18:23:00,
2013-01-15 13:53:00,33.0,9.0,30.22,WSW,251,6.0,10.0,36,0.00,,,0.00,,2013-01-15 19:53:00,
2013-01-15 14:03:00,33.0,9.0,30.22,WSW,251,6.0,10.0,36,0.00,,,0.00,,2013-01-15 20:03:00,
2013-01-15 14:12:00,33.0,9.0,30.22,WSW,251,6.0,10.0,36,0.00,,,0.00,,2013-01-15 20:12:00,
2013-01-15 14:23:00,33.0,9.0,30.22,WSW,251,6.0,10.0,36,0.00,,,0.00,,2013-01-15 20:23:00,
2013-01-15 15:53:00,34.0,9.0,30.19,West,271,4.0,9.0,34,0.00,,,0.00,,2013-01-15 21:53:00,
2013-01-15 16:03:00,34.0,9.0,30.19,West,271,4.0,9.0,34,0.00,,,0.00,,2013-01-15 22:03:00,
2013-01-15 16:12:00,34.0,9.0,30.19,West,271,4.0,9.0,34,0.00,,,0.00,,2013-01-15 22:12:00,
2013-01-15 16:23:00,34.0,9.0,30.19,West,271,4.0,9.0,34,0.00,,,0.00,,2013-01-15 22:23:00,
2013-01-15 17:53:00,31.0,6.0,30.16,WSW,253,4.0,6.0,34,0.00,,,0.00,,2013-01-15 23:53:00,
2013-01-15 18:02:00,31.0,6.0,30.16,WSW,253,4.0,6.0,34,0.00,,,0.00,,2013-01-16 00:02:00,
2013-01-15 18:12:00,31.0,6.0,30.16,WSW,253,4.0,6.0,34,0.00,,,0.00,,2013-01-16 00:12:00,
2013-01-15 18:22:00,31.0,6.0,30.16,WSW,253,4.0,6.0,34,0.00,,,0.00,,2013-01-16 00:22:00,
2013-01-15 19:53:00,28.0,4.0,30.16,WSW,242,3.0,7.0,35,0.00,,,0.00,,2013-01-16 01:53:00,
2013-01-15 20:03:00,28.0,4.0,30.16,WSW,242,3.0,7.0,35,0.00,,,0.00,,2013-01-16 02:03:00,
2013-01-15 20:12:00,28.0,4.0,30.16,WSW,242,3.0,7.0,35,0.00,,,0.00,,2013-01-16 02:12:00,
2013-01-15 20:22:00,28.0,4.0,30.16,WSW,242,3.0,7.0,35,0.00,,,0.00,,2013-01-16 02:22:00,
2013-01-15 21:53:00,25.0,2.0,30.10,West,263,5.0,9.0,37,0.00,,,0.00,,2013-01-16 03:53:00,
2013-01-15 22:02:00,25.0,2.0,30.10,West,263,5.0,9.0,37,0.00,,,0.00,,2013-01-16 04:02:00,
2013-01-15 22:12:00,25.0,2.0,30.10,West,263,5.0,9.0,37,0.00,,,0.00,,2013-01-16 04:12:00,
2013-01-15 22:22:00,25.0,2.0,30.10,West,263,5.0,9.0,37,0.00,,,0.00,,2013-01-16 04:22:00,
2013-01-15 23:53:00,23.0,3.0,30.07,West,265,8.0,12.0,41,0.00,,,0.00,,2013-01-16 05:53:00,